Time;durP1;ratioP1;P1;durP2;ratioP2;P2;SDS_P1;SDS_P2;PMS_P1;PMS_P2;Temp;Humidity;BMP_temperature;BMP_pressure;BME280_temperature;BME280_humidity;BME280_pressure;Samples;Min_cycle;Max_cycle;Signal;HPM_P1;HPM_P2
2022/11/22 00:00:59;;;;;;;4.13;3.73;;;;;;;10.00;66.42;98862.38;5031282;28;20246;-55
2022/11/22 00:03:26;;;;;;;4.40;3.70;;;;;;;9.95;66.58;98861.50;5031420;28;20204;-55
2022/11/22 00:05:54;;;;;;;4.10;3.80;;;;;;;9.83;66.68;98875.06;5031299;28;20189;-55
2022/11/22 00:08:21;;;;;;;4.43;3.33;;;;;;;9.78;67.00;98861.34;5031237;28;20185;-55
2022/11/22 00:10:49;;;;;;;4.97;4.07;;;;;;;9.67;66.73;98857.81;5031358;28;20656;-54
2022/11/22 00:13:16;;;;;;;3.90;3.60;;;;;;;9.65;67.25;98867.22;5031357;28;20290;-55
2022/11/22 00:15:43;;;;;;;3.83;3.53;;;;;;;9.58;67.37;98862.03;5032044;28;20549;-55
2022/11/22 00:18:10;;;;;;;4.03;3.73;;;;;;;9.52;67.63;98873.06;5031093;28;20247;-55
2022/11/22 00:20:36;;;;;;;4.07;3.73;;;;;;;9.49;67.88;98873.03;5033456;28;20200;-55
2022/11/22 00:23:05;;;;;;;3.90;3.60;;;;;;;9.39;68.08;98868.66;5035037;28;20189;-55
2022/11/22 00:25:31;;;;;;;3.90;3.60;;;;;;;9.40;68.32;98868.66;5048036;28;20287;-55
2022/11/22 00:27:58;;;;;;;3.70;3.43;;;;;;;9.39;68.03;98861.81;5055358;28;20662;-55
2022/11/22 00:30:25;;;;;;;4.10;3.70;;;;;;;9.31;68.39;98857.47;5055509;28;20277;-55
2022/11/22 00:32:52;;;;;;;4.17;3.83;;;;;;;9.34;68.52;98863.47;5054853;28;20228;-55
2022/11/22 00:35:19;;;;;;;4.47;4.07;;;;;;;9.33;68.13;98873.72;5054756;28;20194;-55
2022/11/22 00:37:45;;;;;;;3.93;3.53;;;;;;;9.27;68.12;98866.81;5054552;28;20659;-55
2022/11/22 00:40:14;;;;;;;4.50;4.10;;;;;;;9.27;67.97;98871.94;5054671;28;20273;-55
2022/11/22 00:42:41;;;;;;;3.83;3.53;;;;;;;9.27;67.50;98876.22;5050461;28;20199;-54
2022/11/22 00:45:08;;;;;;;4.07;3.77;;;;;;;9.13;67.98;98865.81;5052720;28;20201;-55
2022/11/22 00:47:35;;;;;;;4.88;4.47;;;;;;;9.23;67.28;98884.72;5053465;28;20443;-55
2022/11/22 00:50:02;;;;;;;4.13;3.83;;;;;;;9.28;66.91;98888.19;5054567;28;20212;-54
2022/11/22 00:52:29;;;;;;;3.70;3.50;;;;;;;9.18;67.45;98889.78;5054559;28;20184;-56
2022/11/22 00:54:55;;;;;;;4.40;4.00;;;;;;;9.19;67.25;98898.31;5054410;28;20275;-54
2022/11/22 00:57:24;;;;;;;4.33;3.93;;;;;;;9.13;67.21;98883.75;5054180;28;20226;-54
2022/11/22 00:59:50;;;;;;;4.70;4.30;;;;;;;9.17;67.36;98892.34;5053852;28;20443;-54
2022/11/22 01:02:17;;;;;;;4.67;4.27;;;;;;;9.15;67.42;98891.44;5054112;28;20199;-54
2022/11/22 01:04:44;;;;;;;4.60;4.00;;;;;;;9.13;67.69;98898.25;5054028;28;20202;-54
2022/11/22 01:07:11;;;;;;;3.90;3.60;;;;;;;9.04;68.00;98887.91;5054254;28;20681;-54
2022/11/22 01:09:38;;;;;;;3.63;3.33;;;;;;;9.03;67.91;98896.44;5054074;28;20216;-54
2022/11/22 01:12:05;;;;;;;4.90;4.50;;;;;;;8.98;67.78;98890.38;5053979;28;20215;-54
2022/11/22 01:14:33;;;;;;;4.10;3.80;;;;;;;8.97;67.99;98889.53;5054176;28;20198;-54
2022/11/22 01:17:00;;;;;;;4.80;4.37;;;;;;;8.95;68.20;98900.59;5054684;28;20192;-54
2022/11/22 01:19:27;;;;;;;5.80;4.43;;;;;;;8.97;68.16;98901.47;5054157;28;20284;-55
2022/11/22 01:21:54;;;;;;;4.53;4.13;;;;;;;8.90;68.67;98903.94;5053993;28;20187;-54
2022/11/22 01:24:21;;;;;;;4.40;4.03;;;;;;;8.89;69.02;98906.50;5053797;28;20220;-54
2022/11/22 01:26:47;;;;;;;4.40;4.00;;;;;;;8.86;69.08;98909.88;5054052;28;20200;-54
2022/11/22 01:29:14;;;;;;;4.60;4.20;;;;;;;8.81;69.32;98911.53;5053751;28;20227;-54
2022/11/22 01:31:43;;;;;;;4.80;4.20;;;;;;;8.75;69.41;98902.88;5053360;28;20192;-54
2022/11/22 01:34:09;;;;;;;4.47;4.07;;;;;;;8.26;69.43;98820.25;5053616;28;20195;-54
2022/11/22 01:36:36;;;;;;;4.43;4.03;;;;;;;8.71;68.98;98903.66;5053683;28;20188;-54
2022/11/22 01:39:03;;;;;;;4.60;4.20;;;;;;;8.75;68.78;98905.44;5053628;28;20206;-54
2022/11/22 01:41:30;;;;;;;5.03;4.57;;;;;;;8.73;68.68;98902.88;5053430;28;20184;-55
2022/11/22 01:43:57;;;;;;;4.67;4.27;;;;;;;8.75;68.53;98905.44;5053434;28;20265;-54
2022/11/22 01:46:32;;;;;;;7.57;4.40;;;;;;;8.71;68.81;98901.09;5053425;28;20191;-54
2022/11/22 01:49:04;;;;;;;5.70;5.20;;;;;;;8.70;69.21;98899.41;5052308;28;20465;-54
2022/11/22 01:51:36;;;;;;;4.93;4.50;;;;;;;8.76;68.38;98900.31;5053376;28;20696;-54
2022/11/22 01:54:07;;;;;;;4.90;4.47;;;;;;;8.75;68.49;98903.75;5059776;28;20264;-55
2022/11/22 01:56:37;;;;;;;5.47;4.20;;;;;;;8.66;68.71;98901.06;5073102;28;20245;-55
2022/11/22 01:59:12;;;;;;;4.70;4.30;;;;;;;8.75;68.40;98905.44;5058009;28;20277;-55
2022/11/22 02:01:39;;;;;;;4.20;3.80;;;;;;;8.76;68.07;98902.88;5053281;28;20194;-54
2022/11/22 02:04:11;;;;;;;4.83;4.40;;;;;;;8.71;68.31;98908.78;5054932;28;20188;-55
2022/11/22 02:06:43;;;;;;;4.60;4.20;;;;;;;8.41;68.64;98855.44;5073521;28;20664;-55
2022/11/22 02:09:12;;;;;;;5.80;4.30;;;;;;;8.56;68.63;98871.03;5073050;28;20211;-54
2022/11/22 02:11:45;;;;;;;4.33;4.00;;;;;;;8.69;68.76;98902.78;5072909;28;20192;-54
2022/11/22 02:14:14;;;;;;;4.47;4.07;;;;;;;8.62;68.94;98909.53;5073089;28;20199;-54
2022/11/22 02:16:43;;;;;;;4.63;4.23;;;;;;;8.63;68.71;98913.81;5072874;28;20236;-54
2022/11/22 02:19:26;;;;;;;4.70;4.30;;;;;;;8.58;68.96;98918.00;5072895;28;20206;-54
2022/11/22 02:21:58;;;;;;;4.93;4.33;;;;;;;8.56;69.31;98909.44;5073227;28;20187;-54
2022/11/22 02:24:31;;;;;;;5.85;4.85;;;;;;;8.46;68.78;98881.13;5071713;28;20453;-54
2022/11/22 02:27:00;;;;;;;6.70;4.80;;;;;;;8.61;68.62;98907.81;5072618;28;20657;-54
2022/11/22 02:29:27;;;;;;;4.70;4.30;;;;;;;8.63;68.52;98916.38;5072744;28;20223;-54
2022/11/22 02:31:53;;;;;;;4.83;4.43;;;;;;;8.63;68.42;98923.19;5072582;28;20248;-55
2022/11/22 02:34:20;;;;;;;4.53;3.83;;;;;;;8.58;68.28;98923.13;5072516;28;20191;-55
2022/11/22 02:36:50;;;;;;;5.03;4.63;;;;;;;8.60;68.13;98920.56;5071623;28;20434;-55
2022/11/22 02:39:21;;;;;;;5.23;4.73;;;;;;;8.64;68.22;98933.47;5072396;28;20194;-55
2022/11/22 02:41:48;;;;;;;5.13;4.67;;;;;;;8.43;68.04;98899.88;5073149;28;20191;-55
2022/11/22 02:44:18;;;;;;;4.67;4.30;;;;;;;8.62;67.96;98930.03;5072317;28;20202;-54
2022/11/22 02:46:50;;;;;;;5.10;4.60;;;;;;;8.40;68.31;98901.50;5072476;28;20653;-54
2022/11/22 02:49:18;;;;;;;4.20;3.80;;;;;;;8.53;68.43;98929.00;5072579;28;20283;-55
2022/11/22 02:51:45;;;;;;;4.10;3.80;;;;;;;8.48;68.85;98936.63;5072219;28;20297;-54
2022/11/22 02:54:12;;;;;;;4.10;3.80;;;;;;;8.53;68.77;98926.44;5072254;28;20189;-55
2022/11/22 02:56:38;;;;;;;4.57;4.17;;;;;;;8.55;68.90;98928.19;5072741;28;20194;-55
2022/11/22 02:59:05;;;;;;;4.37;3.97;;;;;;;8.49;69.43;98934.94;5072467;28;20195;-56
2022/11/22 03:01:33;;;;;;;5.43;4.40;;;;;;;8.49;69.49;98938.34;5066736;28;20213;-55
2022/11/22 03:04:00;;;;;;;4.70;4.30;;;;;;;8.45;69.83;98934.03;5051991;28;20194;-55
2022/11/22 03:06:27;;;;;;;5.07;4.57;;;;;;;8.45;69.97;98939.16;5052033;28;20188;-55
2022/11/22 03:08:54;;;;;;;4.23;3.87;;;;;;;8.49;69.84;98943.47;5051921;28;20192;-55
2022/11/22 03:11:21;;;;;;;4.30;3.93;;;;;;;8.43;70.29;98933.16;5051920;28;20231;-55
2022/11/22 03:13:48;;;;;;;4.67;4.27;;;;;;;8.40;69.97;98943.34;5051977;28;20198;-55
2022/11/22 03:16:14;;;;;;;5.37;4.37;;;;;;;8.40;69.75;98938.22;5043614;28;20686;-54
2022/11/22 03:18:43;;;;;;;12.93;4.70;;;;;;;8.36;69.92;98936.44;5037398;28;20194;-55
2022/11/22 03:21:10;;;;;;;4.80;4.40;;;;;;;8.38;70.37;98939.88;5043285;28;20201;-55
2022/11/22 03:23:38;;;;;;;5.00;4.57;;;;;;;8.38;70.26;98937.31;5031106;28;20441;-55
2022/11/22 03:26:07;;;;;;;5.40;4.90;;;;;;;8.37;70.59;98934.75;5044671;28;20249;-55
2022/11/22 03:28:34;;;;;;;5.57;5.07;;;;;;;8.38;69.96;98928.78;5039050;28;20617;-55
2022/11/22 03:31:01;;;;;;;5.90;5.30;;;;;;;8.32;70.52;98935.50;5051499;28;20594;-54
2022/11/22 03:33:28;;;;;;;6.47;5.10;;;;;;;8.29;70.29;98937.19;5053022;28;20246;-55
2022/11/22 03:35:57;;;;;;;5.20;4.70;;;;;;;8.30;70.59;98946.56;5061310;28;20210;-55
2022/11/22 03:38:24;;;;;;;5.73;5.20;;;;;;;8.31;70.33;98948.28;5052374;28;20192;-55
2022/11/22 03:40:50;;;;;;;7.00;5.10;;;;;;;8.26;70.89;98957.56;5062578;28;20210;-55
2022/11/22 03:43:17;;;;;;;5.63;5.13;;;;;;;8.21;71.47;98946.41;5071980;28;20188;-55
2022/11/22 03:45:45;;;;;;;5.43;4.93;;;;;;;8.23;71.24;98948.16;5072187;28;20188;-55
2022/11/22 03:48:13;;;;;;;5.70;5.13;;;;;;;8.25;71.29;98945.59;5071719;28;20183;-55
2022/11/22 03:50:39;;;;;;;5.17;4.67;;;;;;;8.22;71.23;98946.41;5071700;28;20233;-55
2022/11/22 03:53:08;;;;;;;5.83;5.17;;;;;;;8.07;71.26;98935.06;5071822;28;20198;-54
2022/11/22 03:55:35;;;;;;;6.23;5.33;;;;;;;8.17;71.61;98955.72;5075712;28;20206;-54
2022/11/22 03:58:02;;;;;;;8.70;5.57;;;;;;;8.08;72.36;98949.56;5066468;28;20206;-54
2022/11/22 04:00:29;;;;;;;7.20;6.38;;;;;;;8.08;72.68;98947.88;5054819;28;20444;-54
2022/11/22 04:02:56;;;;;;;5.73;5.13;;;;;;;8.07;72.62;98945.31;5055622;28;20192;-54
2022/11/22 04:05:22;;;;;;;5.77;5.17;;;;;;;8.11;72.28;98950.47;5055537;28;20192;-55
2022/11/22 04:07:54;;;;;;;7.77;4.90;;;;;;;8.05;72.50;98946.94;5055629;28;20195;-55
2022/11/22 04:10:23;;;;;;;6.20;4.57;;;;;;;7.99;72.88;98952.84;5055603;28;20244;-55
2022/11/22 04:12:50;;;;;;;6.03;5.43;;;;;;;7.97;73.35;98953.63;5055018;28;20436;-55
2022/11/22 04:15:16;;;;;;;5.57;5.07;;;;;;;8.01;73.34;98955.41;5055501;28;20246;-54
2022/11/22 04:17:44;;;;;;;9.20;5.70;;;;;;;7.93;73.85;98965.53;5055286;28;20199;-55
2022/11/22 04:23:01;;;;;;;5.53;5.03;;;;;;;7.96;74.46;98962.16;5055814;28;20323;-55
2022/11/22 04:25:30;;;;;;;7.17;5.47;;;;;;;7.93;74.81;98960.41;5055133;28;20198;-55
2022/11/22 04:27:58;;;;;;;5.40;4.90;;;;;;;7.94;75.01;98949.31;5055159;28;20237;-55
2022/11/22 04:32:44;;;;;;;6.87;5.00;;;;;;;8.01;74.42;98946.06;5054757;28;20697;-55
2022/11/22 04:33:13;;;;;;;4.97;4.50;;;;;;;8.10;73.56;98956.44;5054819;28;20314;-55
2022/11/22 04:35:40;;;;;;;4.53;4.10;;;;;;;8.17;72.34;98958.28;5054847;28;20188;-55
2022/11/22 04:38:08;;;;;;;5.37;4.80;;;;;;;8.20;72.16;98960.88;5054753;28;20242;-55
2022/11/22 04:40:36;;;;;;;4.27;3.87;;;;;;;8.30;70.18;98970.47;5055004;28;20203;-55
2022/11/22 04:45:48;;;;;;;4.30;3.97;;;;;;;8.46;68.72;98966.44;5054831;28;20274;-55
2022/11/22 04:48:15;;;;;;;5.40;4.20;;;;;;;8.50;68.54;98980.16;5054766;28;20278;-54
2022/11/22 04:53:27;;;;;;;5.37;4.87;;;;;;;8.46;69.55;98984.38;5054753;28;20215;-55
2022/11/22 04:55:56;;;;;;;5.40;4.90;;;;;;;8.43;70.19;98984.34;5040085;28;20197;-54
2022/11/22 04:58:23;;;;;;;5.30;4.80;;;;;;;8.30;70.48;98965.34;5034711;28;20192;-54
2022/11/22 05:00:50;;;;;;;5.53;5.03;;;;;;;8.31;70.96;98994.38;5034424;28;20663;-55
2022/11/22 05:03:17;;;;;;;6.50;5.90;;;;;;;8.25;71.34;98991.66;5034502;28;20196;-54
2022/11/22 05:05:44;;;;;;;5.70;5.20;;;;;;;8.21;71.98;99008.66;5034007;28;20687;-55
2022/11/22 05:08:12;;;;;;;5.90;5.30;;;;;;;8.10;72.49;99009.31;5034209;28;20189;-55
2022/11/22 05:10:58;;;;;;;8.67;5.47;;;;;;;8.06;73.01;99018.63;5034294;28;20220;-55
2022/11/22 05:13:29;;;;;;;6.97;5.30;;;;;;;8.07;72.87;99022.91;5034478;28;20555;-55
2022/11/22 05:15:56;;;;;;;6.67;5.97;;;;;;;8.07;73.10;99019.50;5034207;28;20196;-55
2022/11/22 05:18:24;;;;;;;7.20;5.60;;;;;;;8.16;72.55;99038.41;5034143;28;20188;-56
2022/11/22 05:20:51;;;;;;;6.23;5.63;;;;;;;8.10;72.61;99040.84;5034486;28;20197;-55
2022/11/22 05:26:04;;;;;;;9.27;5.40;;;;;;;8.09;72.79;99056.19;5034198;28;20199;-54
2022/11/22 05:28:34;;;;;;;7.80;6.20;;;;;;;8.16;72.38;99055.47;5033954;28;20189;-55
2022/11/22 05:31:06;;;;;;;6.13;5.40;;;;;;;8.14;71.84;99055.44;5033703;28;20222;-55
2022/11/22 05:33:35;;;;;;;7.17;5.30;;;;;;;8.20;71.58;99063.25;5033696;28;20239;-54
2022/11/22 05:36:02;;;;;;;9.83;5.87;;;;;;;8.17;71.60;99062.31;5033613;28;20247;-54
2022/11/22 05:38:29;;;;;;;7.93;6.80;;;;;;;8.27;71.35;99074.47;5037305;28;20963;-55
2022/11/22 05:40:56;;;;;;;7.97;6.10;;;;;;;8.27;71.26;99070.22;5070432;28;20259;-55
2022/11/22 05:43:23;;;;;;;7.37;6.13;;;;;;;8.30;71.42;99072.84;5053076;28;20219;-54
2022/11/22 05:45:51;;;;;;;8.27;6.20;;;;;;;8.35;71.06;99070.34;5053509;28;20681;-54
2022/11/22 05:48:18;;;;;;;6.30;5.70;;;;;;;8.40;70.12;99088.38;5054592;28;20382;-54
2022/11/22 05:50:44;;;;;;;7.72;6.07;;;;;;;8.42;70.57;99097.78;5067903;28;20466;-54
2022/11/22 05:53:11;;;;;;;8.07;6.03;;;;;;;8.48;70.21;99084.25;5053139;28;20188;-54
2022/11/22 05:55:38;;;;;;;6.40;5.80;;;;;;;8.44;70.51;99093.56;5053320;28;20196;-54
2022/11/22 05:58:05;;;;;;;6.00;5.40;;;;;;;8.49;69.84;99093.66;5053158;28;20191;-54
2022/11/22 06:00:32;;;;;;;10.77;6.27;;;;;;;8.54;69.51;99092.88;5059110;28;20223;-54
2022/11/22 06:03:03;;;;;;;7.07;5.80;;;;;;;8.61;69.15;99087.03;5073483;28;20187;-55
2022/11/22 06:05:31;;;;;;;5.40;4.90;;;;;;;8.66;68.38;99087.97;5073446;28;20196;-55
2022/11/22 06:08:00;;;;;;;7.70;6.13;;;;;;;8.70;68.22;99088.91;5073124;28;20300;-55
2022/11/22 06:10:27;;;;;;;8.13;6.13;;;;;;;8.76;67.96;99087.28;5072765;28;20250;-55
2022/11/22 06:12:54;;;;;;;6.83;5.97;;;;;;;8.87;66.98;99088.31;5072853;28;20196;-55
2022/11/22 06:15:21;;;;;;;7.00;5.60;;;;;;;8.94;66.28;99084.19;5072969;28;20194;-55
2022/11/22 06:17:48;;;;;;;8.10;5.70;;;;;;;9.01;65.99;99087.72;5071569;28;20199;-55
2022/11/22 06:20:17;;;;;;;6.65;5.90;;;;;;;9.05;66.07;99086.91;5071958;28;20507;-55
2022/11/22 06:22:44;;;;;;;8.23;6.22;;;;;;;9.21;65.48;99086.28;5071813;28;20422;-55
2022/11/22 06:25:11;;;;;;;8.73;6.10;;;;;;;9.47;64.41;99098.69;5072365;28;20249;-55
2022/11/22 06:27:38;;;;;;;9.30;5.90;;;;;;;9.59;63.99;99080.00;5068282;28;20211;-55
2022/11/22 06:30:06;;;;;;;9.70;5.73;;;;;;;9.58;64.10;99085.13;5052238;28;20249;-55
2022/11/22 06:32:33;;;;;;;7.13;6.13;;;;;;;9.53;63.89;99082.50;5052263;28;20686;-55
2022/11/22 06:35:01;;;;;;;7.07;6.20;;;;;;;9.40;64.69;99080.59;5052356;28;20219;-55
2022/11/22 06:37:29;;;;;;;7.13;5.57;;;;;;;9.48;64.32;99087.56;5052313;28;20202;-55
2022/11/22 06:39:56;;;;;;;8.10;5.97;;;;;;;9.40;64.58;99078.91;5052170;28;20214;-55
2022/11/22 06:42:23;;;;;;;9.00;7.53;;;;;;;9.60;64.78;99106.53;5051955;28;20192;-55
2022/11/22 06:44:50;;;;;;;7.50;6.63;;;;;;;9.57;65.18;99117.59;5051745;28;20646;-56
2022/11/22 06:47:17;;;;;;;9.17;6.47;;;;;;;9.62;65.03;99128.78;5051873;28;20193;-54
2022/11/22 06:49:45;;;;;;;7.50;6.80;;;;;;;9.57;64.71;99132.13;5052036;28;20189;-54
2022/11/22 06:52:11;;;;;;;10.47;6.33;;;;;;;9.54;64.86;99132.06;5051576;28;20265;-55
2022/11/22 06:54:40;;;;;;;8.67;6.23;;;;;;;9.61;65.20;99129.66;5059889;28;20243;-56
2022/11/22 06:57:06;;;;;;;12.33;7.60;;;;;;;9.70;65.46;99118.63;5071357;28;20191;-55
2022/11/22 06:59:34;;;;;;;9.77;6.77;;;;;;;9.79;65.40;99129.88;5072106;28;20278;-55
2022/11/22 07:02:01;;;;;;;8.20;7.40;;;;;;;9.81;64.72;99127.31;5072086;28;20543;-55
2022/11/22 07:04:28;;;;;;;9.87;7.77;;;;;;;9.89;64.27;99141.97;5071788;28;20731;-55
2022/11/22 07:06:55;;;;;;;8.37;7.20;;;;;;;9.96;63.50;99148.94;5071858;28;20653;-55
2022/11/22 07:09:21;;;;;;;8.53;6.63;;;;;;;10.03;63.33;99144.72;5071395;28;20187;-55
2022/11/22 07:11:49;;;;;;;8.27;7.47;;;;;;;10.14;62.54;99140.63;5071529;28;20705;-55
2022/11/22 07:14:16;;;;;;;7.47;6.73;;;;;;;10.17;62.25;99132.09;5071770;28;20188;-55
2022/11/22 07:16:43;;;;;;;8.73;6.50;;;;;;;10.16;62.32;99138.09;5071860;28;20700;-55
2022/11/22 07:19:10;;;;;;;11.83;6.60;;;;;;;10.17;62.49;99144.91;5071724;28;20238;-55
2022/11/22 07:21:37;;;;;;;7.37;6.67;;;;;;;10.21;62.57;99154.41;5071634;28;20187;-55
2022/11/22 07:24:05;;;;;;;6.73;6.03;;;;;;;10.24;62.43;99142.47;5069923;28;20187;-56
2022/11/22 07:26:32;;;;;;;9.87;6.60;;;;;;;10.22;62.31;99151.84;5059990;28;20192;-56
2022/11/22 07:29:00;;;;;;;6.30;5.70;;;;;;;10.30;62.14;99142.50;5069535;28;20191;-56
2022/11/22 07:31:28;;;;;;;7.73;6.13;;;;;;;10.28;62.08;99140.78;5071536;28;20581;-56
2022/11/22 07:33:55;;;;;;;13.47;6.87;;;;;;;10.38;61.64;99132.34;5071633;28;20227;-56
2022/11/22 07:36:23;;;;;;;7.50;6.33;;;;;;;10.48;61.53;99134.16;5071638;28;20198;-56
2022/11/22 07:38:50;;;;;;;7.87;5.63;;;;;;;10.42;60.76;99127.25;5071379;28;20188;-56
2022/11/22 07:41:18;;;;;;;7.30;6.00;;;;;;;10.58;61.20;99141.13;5071378;28;20195;-56
2022/11/22 07:43:45;;;;;;;13.73;6.23;;;;;;;10.68;60.71;99136.94;5071485;28;20246;-56
2022/11/22 07:46:20;;;;;;;7.30;6.17;;;;;;;10.63;60.93;99135.19;5071577;28;20237;-55
2022/11/22 07:48:48;;;;;;;9.63;6.20;;;;;;;10.77;60.81;99127.59;5071122;28;20195;-56
2022/11/22 07:51:15;;;;;;;7.90;6.50;;;;;;;10.85;60.79;99118.25;5071420;28;20663;-56
2022/11/22 07:53:42;;;;;;;9.10;5.97;;;;;;;10.98;60.23;99120.09;5071877;28;20188;-56
2022/11/22 07:56:08;;;;;;;5.50;5.00;;;;;;;11.02;60.24;99119.28;5054046;28;20204;-56
2022/11/22 07:58:36;;;;;;;7.07;5.93;;;;;;;11.14;59.77;99119.38;5037534;28;20197;-56
2022/11/22 08:01:07;;;;;;;6.20;5.60;;;;;;;11.21;58.84;99115.13;5031424;28;20220;-56
2022/11/22 08:03:36;;;;;;;6.57;5.80;;;;;;;11.28;58.81;99106.63;5031202;28;20606;-57
2022/11/22 08:06:05;;;;;;;5.73;5.17;;;;;;;11.31;58.17;99111.78;5045900;28;20192;-58
2022/11/22 08:08:32;;;;;;;5.77;5.27;;;;;;;11.37;58.15;99114.38;5048501;28;20578;-56
2022/11/22 08:10:59;;;;;;;7.00;5.83;;;;;;;11.44;57.89;99112.72;5049588;28;20235;-56
2022/11/22 08:13:26;;;;;;;6.70;5.80;;;;;;;11.48;57.53;99115.31;5049849;28;20181;-56
2022/11/22 08:15:54;;;;;;;6.13;5.53;;;;;;;11.41;57.30;99112.69;5049886;28;20203;-57
2022/11/22 08:18:21;;;;;;;6.27;5.67;;;;;;;11.46;57.56;99113.59;5045429;28;20188;-56
2022/11/22 08:20:49;;;;;;;11.20;6.10;;;;;;;11.58;57.18;99111.09;5048735;28;20192;-56
2022/11/22 08:23:16;;;;;;;9.10;5.50;;;;;;;11.56;56.84;99113.69;5050627;28;20291;-55
2022/11/22 08:25:43;;;;;;;5.97;5.37;;;;;;;11.63;57.28;99104.28;5050291;28;20192;-54
2022/11/22 08:28:10;;;;;;;5.70;5.00;;;;;;;11.66;56.42;99114.59;5051224;28;20189;-55
2022/11/22 08:30:37;;;;;;;7.93;5.50;;;;;;;11.67;56.05;99111.16;5050866;28;20195;-55
2022/11/22 08:33:04;;;;;;;6.70;4.20;;;;;;;11.60;55.25;99101.66;5051108;28;20306;-55
2022/11/22 08:35:31;;;;;;;6.03;5.50;;;;;;;11.55;56.34;99098.22;5040875;28;20663;-55
2022/11/22 08:37:59;;;;;;;7.85;6.07;;;;;;;11.60;56.30;99093.97;5031274;28;20445;-54
2022/11/22 08:40:26;;;;;;;8.13;6.20;;;;;;;11.68;56.10;99087.13;5031154;28;20193;-55
2022/11/22 08:42:55;;;;;;;10.83;7.67;;;;;;;11.69;54.24;99065.75;5034073;28;20300;-55
2022/11/22 08:45:21;;;;;;;5.33;4.83;;;;;;;11.80;53.75;99070.09;5034070;28;20730;-55
2022/11/22 08:47:48;;;;;;;4.37;4.03;;;;;;;11.82;53.55;99063.22;5034567;28;20189;-55
2022/11/22 08:50:17;;;;;;;6.43;5.73;;;;;;;11.92;53.40;99071.84;5034537;28;20284;-55
2022/11/22 08:52:44;;;;;;;5.95;5.35;;;;;;;12.07;53.40;99071.03;5048291;28;20442;-55
2022/11/22 08:55:12;;;;;;;5.50;5.00;;;;;;;12.20;53.63;99059.91;5074147;28;20197;-55
2022/11/22 08:57:39;;;;;;;8.27;5.63;;;;;;;12.35;52.69;99052.25;5073042;28;20312;-55
2022/11/22 09:00:08;;;;;;;10.40;5.73;;;;;;;12.27;52.61;99043.63;5070041;28;20212;-56
2022/11/22 09:02:34;;;;;;;10.53;7.03;;;;;;;12.32;53.23;99037.63;5054144;28;20562;-55
2022/11/22 09:05:01;;;;;;;9.83;8.07;;;;;;;12.33;53.82;99031.59;5065796;28;20195;-55
2022/11/22 09:07:28;;;;;;;10.87;7.30;;;;;;;12.43;53.00;99025.63;5074072;28;20191;-55
2022/11/22 09:09:55;;;;;;;10.87;8.30;;;;;;;12.49;53.03;99029.94;5074050;28;20194;-55
2022/11/22 09:12:24;;;;;;;16.80;9.43;;;;;;;12.59;53.70;99023.06;5073787;28;20215;-55
2022/11/22 09:14:50;;;;;;;15.57;9.67;;;;;;;12.73;53.28;99023.91;5058589;28;20666;-56
2022/11/22 09:17:17;;;;;;;12.80;10.27;;;;;;;12.61;53.07;99011.06;5061385;28;20198;-55
2022/11/22 09:19:44;;;;;;;14.43;9.97;;;;;;;12.78;53.83;99022.19;5073772;28;20577;-55
2022/11/22 09:22:11;;;;;;;9.53;6.87;;;;;;;12.81;52.25;99022.19;5074370;28;20199;-55
2022/11/22 09:24:38;;;;;;;9.87;6.90;;;;;;;12.84;51.89;99019.63;5073973;28;20558;-55
2022/11/22 09:27:05;;;;;;;8.73;6.27;;;;;;;12.82;52.58;99026.50;5073621;28;20187;-55
2022/11/22 09:29:33;;;;;;;11.70;9.07;;;;;;;12.82;52.41;99016.19;5073631;28;20184;-56
2022/11/22 09:32:00;;;;;;;9.53;7.80;;;;;;;12.81;52.02;99009.31;5073786;28;20236;-56
2022/11/22 09:34:27;;;;;;;7.43;5.77;;;;;;;12.91;51.76;99005.88;5073564;28;20191;-56
2022/11/22 09:36:54;;;;;;;7.23;5.23;;;;;;;12.84;52.29;98993.84;5073695;28;20277;-56
2022/11/22 09:39:20;;;;;;;6.43;4.50;;;;;;;12.66;51.30;98975.81;5073311;28;20715;-55
2022/11/22 09:42:12;;;;;;;4.73;4.03;;;;;;;12.62;51.00;99005.03;5072586;28;20199;-55
2022/11/22 09:45:00;;;;;;;5.60;4.10;;;;;;;12.72;51.67;99010.16;5052964;28;20192;-55
2022/11/22 09:47:34;;;;;;;5.50;4.63;;;;;;;12.75;51.61;99019.63;5052228;28;20621;-55
2022/11/22 09:50:11;;;;;;;5.73;5.00;;;;;;;12.70;51.96;99023.91;5051726;28;20197;-56
2022/11/22 09:52:42;;;;;;;5.20;4.63;;;;;;;12.87;51.88;99028.22;5050401;28;20273;-56
2022/11/22 09:55:15;;;;;;;8.50;5.50;;;;;;;12.72;51.63;98971.50;5051528;28;20207;-56
2022/11/22 09:57:47;;;;;;;6.40;5.70;;;;;;;13.22;51.74;99017.03;5051577;28;20188;-56
2022/11/22 10:00:20;;;;;;;8.77;4.97;;;;;;;13.39;50.50;99029.03;5052277;28;20207;-56
2022/11/22 10:02:53;;;;;;;7.97;6.03;;;;;;;13.25;50.75;98999.81;5050141;28;20218;-56
2022/11/22 10:05:26;;;;;;;6.17;5.17;;;;;;;13.41;50.74;99021.28;5050452;28;20204;-56
2022/11/22 10:07:59;;;;;;;6.80;5.53;;;;;;;13.27;50.76;99013.56;5050899;28;20201;-55
2022/11/22 10:10:34;;;;;;;6.23;5.40;;;;;;;13.17;51.20;98980.94;5051774;28;20620;-55
2022/11/22 10:13:05;;;;;;;7.53;5.57;;;;;;;13.42;51.09;99005.81;5051726;28;20215;-56
2022/11/22 10:15:39;;;;;;;10.57;6.53;;;;;;;13.58;51.16;98999.72;5051397;28;20549;-55
2022/11/22 10:18:16;;;;;;;10.30;5.60;;;;;;;13.66;50.34;98996.25;5052038;28;20732;-55
2022/11/22 10:20:44;;;;;;;7.30;6.03;;;;;;;13.56;50.40;98990.28;5052433;28;20188;-55
2022/11/22 10:23:17;;;;;;;8.40;5.87;;;;;;;13.56;50.99;98978.22;5052414;28;20658;-55
2022/11/22 10:25:47;;;;;;;7.00;6.07;;;;;;;13.43;51.58;98983.44;5052156;28;20633;-55
2022/11/22 10:28:17;;;;;;;7.63;6.80;;;;;;;13.49;52.26;98979.09;5051155;28;20554;-56
2022/11/22 10:30:52;;;;;;;8.47;6.33;;;;;;;13.65;52.16;98984.22;5052493;28;20188;-56
2022/11/22 10:33:25;;;;;;;6.57;5.77;;;;;;;13.69;50.94;98996.22;5052215;28;20235;-56
2022/11/22 10:36:04;;;;;;;9.47;6.17;;;;;;;13.77;51.09;98991.88;5052646;28;20187;-55
2022/11/22 10:38:56;;;;;;;13.93;10.80;;;;;;;13.97;51.00;98997.81;5052449;28;20197;-56
2022/11/22 10:41:35;;;;;;;7.17;6.43;;;;;;;13.99;50.59;98989.19;5052245;28;20327;-56
2022/11/22 10:44:13;;;;;;;9.53;7.20;;;;;;;13.90;51.16;98991.00;5052010;28;20263;-56
2022/11/22 10:46:54;;;;;;;9.60;7.53;;;;;;;13.95;50.67;98996.97;5052010;28;20662;-56
2022/11/22 10:49:32;;;;;;;10.77;7.83;;;;;;;13.72;51.47;98998.81;5051995;28;20705;-55
2022/11/22 10:52:06;;;;;;;11.87;8.03;;;;;;;13.44;51.85;98970.53;5051782;28;20647;-56
2022/11/22 10:54:42;;;;;;;9.00;8.20;;;;;;;13.63;52.21;98984.22;5052545;28;20199;-55
2022/11/22 10:57:29;;;;;;;10.10;8.23;;;;;;;13.65;51.95;98981.63;5051642;28;20196;-55
2022/11/22 11:00:13;;;;;;;10.80;7.77;;;;;;;13.59;52.46;98969.63;5051875;28;20764;-55
2022/11/22 11:03:00;;;;;;;10.10;8.07;;;;;;;13.71;52.73;98973.84;5051992;28;20206;-57
2022/11/22 11:05:33;;;;;;;9.67;8.03;;;;;;;13.76;52.15;98965.22;5050583;28;20427;-56
2022/11/22 11:08:00;;;;;;;10.77;7.47;;;;;;;13.46;52.00;98896.53;5052163;28;20674;-55
2022/11/22 11:10:34;;;;;;;10.00;7.40;;;;;;;13.90;51.54;98941.94;5051763;28;20259;-57
2022/11/22 11:13:05;;;;;;;7.70;6.90;;;;;;;13.88;51.82;98941.91;5051480;28;20247;-56
2022/11/22 11:15:37;;;;;;;7.27;6.57;;;;;;;13.92;51.25;98937.59;5051314;28;20725;-55
2022/11/22 11:18:14;;;;;;;8.18;7.38;;;;;;;13.77;51.33;98906.69;5050846;28;20439;-57
2022/11/22 11:20:46;;;;;;;7.33;6.63;;;;;;;13.97;51.10;98925.50;5052480;28;20195;-55
2022/11/22 11:23:14;;;;;;;11.60;8.33;;;;;;;14.02;50.94;98928.91;5051631;28;20287;-57
2022/11/22 11:25:43;;;;;;;10.63;6.80;;;;;;;13.98;51.44;98927.25;5051942;28;20613;-56
2022/11/22 11:28:16;;;;;;;7.77;6.90;;;;;;;14.04;51.23;98912.53;5051657;28;20190;-56
2022/11/22 11:30:46;;;;;;;8.97;7.17;;;;;;;13.96;51.29;98888.50;5051445;28;20731;-56
2022/11/22 11:33:25;;;;;;;10.97;7.40;;;;;;;14.19;51.44;98906.41;5051829;28;20234;-55
2022/11/22 11:35:55;;;;;;;7.43;6.70;;;;;;;14.29;51.14;98897.69;5051681;28;20197;-55
2022/11/22 11:38:31;;;;;;;8.50;7.03;;;;;;;14.41;51.40;98905.41;5049645;28;20199;-56
2022/11/22 11:40:58;;;;;;;9.40;6.40;;;;;;;14.51;51.12;98895.81;5050920;28;20188;-55
2022/11/22 11:43:25;;;;;;;8.45;6.30;;;;;;;14.66;49.84;98899.16;5049669;28;20446;-55
2022/11/22 11:45:52;;;;;;;9.33;6.53;;;;;;;14.83;49.77;98905.88;5051415;28;20612;-56
2022/11/22 11:48:39;;;;;;;7.07;5.90;;;;;;;14.81;49.49;98889.50;5051472;28;20208;-55
2022/11/22 11:51:16;;;;;;;5.40;4.90;;;;;;;14.75;48.22;98895.56;5051724;28;20192;-55
2022/11/22 11:53:51;;;;;;;6.23;5.50;;;;;;;14.67;48.70;98884.47;5052180;28;20583;-56
2022/11/22 11:56:20;;;;;;;7.30;5.30;;;;;;;14.47;49.15;98883.81;5051708;28;20289;-55